Time,TemperatureF,DewpointF,PressureIn,WindDirection,WindDirectionDegrees,WindSpeedMPH,WindSpeedGustMPH,Humidity,HourlyPrecipIn,Conditions,Clouds,dailyrainin,SoftwareType,DateUTC
2013-08-13 00:13:00,61.0,60.0,29.88,SSE,168,0.0,1.0,98,0.00,,,0.00,,2013-08-13 04:13:00,
2013-08-13 00:23:00,61.0,60.0,29.87,SSE,161,0.0,2.0,98,0.00,,,0.00,,2013-08-13 04:23:00,
2013-08-13 00:42:00,61.0,60.0,29.87,SSE,165,1.0,2.0,98,0.00,,,0.00,,2013-08-13 04:42:00,
2013-08-13 00:53:00,61.0,60.0,29.87,SSE,162,0.0,2.0,98,0.00,,,0.00,,2013-08-13 04:53:00,
2013-08-13 01:12:00,61.0,60.0,29.86,South,174,0.0,0.0,98,0.00,,,0.00,,2013-08-13 05:12:00,
2013-08-13 01:22:00,61.0,60.0,29.86,South,173,0.0,0.0,98,0.00,,,0.00,,2013-08-13 05:22:00,
2013-08-13 01:42:00,61.0,60.0,29.85,SSE,160,1.0,2.0,98,0.00,,,0.00,,2013-08-13 05:42:00,
2013-08-13 01:52:00,61.0,60.0,29.84,SSE,167,0.0,1.0,98,0.00,,,0.00,,2013-08-13 05:52:00,
2013-08-13 02:11:00,61.0,60.0,29.83,SSE,166,0.0,1.0,98,0.00,,,0.00,,2013-08-13 06:11:00,
2013-08-13 02:21:00,61.0,60.0,29.83,SSE,166,0.0,0.0,98,0.00,,,0.00,,2013-08-13 06:21:00,
2013-08-13 02:42:00,61.0,61.0,29.82,SSE,157,0.0,1.0,99,0.00,,,0.00,,2013-08-13 06:42:00,
2013-08-13 02:53:00,61.0,61.0,29.81,South,169,1.0,2.0,99,0.00,,,0.00,,2013-08-13 06:53:00,
2013-08-13 03:12:00,60.0,60.0,29.80,SSE,167,1.0,2.0,99,0.00,,,0.00,,2013-08-13 07:12:00,
2013-08-13 03:21:00,60.0,60.0,29.79,SE,146,2.0,4.0,99,0.00,,,0.00,,2013-08-13 07:21:00,
2013-08-13 03:42:00,60.0,60.0,29.79,SSE,158,2.0,5.0,99,0.00,,,0.00,,2013-08-13 07:42:00,
2013-08-13 03:52:00,60.0,60.0,29.77,SSE,167,5.0,7.0,99,0.00,,,0.00,,2013-08-13 07:52:00,
2013-08-13 04:11:00,61.0,60.0,29.77,South,186,3.0,6.0,97,0.00,,,0.00,,2013-08-13 08:11:00,
2013-08-13 04:22:00,61.0,60.0,29.76,South,176,4.0,6.0,96,0.00,,,0.00,,2013-08-13 08:22:00,
2013-08-13 04:42:00,61.0,60.0,29.75,SSE,165,1.0,4.0,95,0.00,,,0.00,,2013-08-13 08:42:00,
2013-08-13 04:52:00,60.0,59.0,29.75,South,174,0.0,4.0,97,0.00,,,0.00,,2013-08-13 08:52:00,
2013-08-13 05:11:00,60.0,59.0,29.75,SSE,168,1.0,3.0,98,0.00,,,0.00,,2013-08-13 09:11:00,
2013-08-13 05:22:00,60.0,59.0,29.77,South,174,0.0,1.0,98,0.00,,,0.00,,2013-08-13 09:22:00,
2013-08-13 05:43:00,60.0,59.0,29.76,South,172,1.0,3.0,98,0.00,,,0.00,,2013-08-13 09:43:00,
2013-08-13 05:54:00,60.0,59.0,29.76,West,265,0.0,3.0,98,0.00,,,0.00,,2013-08-13 09:54:00,
2013-08-13 06:12:00,60.0,59.0,29.78,NNE,20,6.0,18.0,98,0.00,,,0.00,,2013-08-13 10:12:00,
2013-08-13 06:23:00,61.0,60.0,29.77,NNW,345,2.0,5.0,98,0.01,,,0.01,,2013-08-13 10:23:00,
2013-08-13 06:42:00,61.0,60.0,29.77,NW,307,1.0,2.0,98,0.02,,,0.02,,2013-08-13 10:42:00,
2013-08-13 06:53:00,61.0,60.0,29.78,South,171,0.0,1.0,97,0.05,,,0.05,,2013-08-13 10:53:00,
2013-08-13 07:11:00,60.0,59.0,29.78,WNW,301,1.0,3.0,97,0.08,,,0.08,,2013-08-13 11:11:00,
2013-08-13 07:22:00,60.0,59.0,29.78,NW,320,1.0,6.0,98,0.12,,,0.13,,2013-08-13 11:22:00,
2013-08-13 07:42:00,60.0,59.0,29.76,NNW,347,0.0,4.0,98,0.17,,,0.19,,2013-08-13 11:42:00,
2013-08-13 07:52:00,60.0,59.0,29.75,WNW,300,0.0,2.0,98,0.17,,,0.22,,2013-08-13 11:52:00,
2013-08-13 08:12:00,60.0,59.0,29.75,South,169,0.0,1.0,98,0.15,,,0.23,,2013-08-13 12:12:00,
2013-08-13 08:21:00,60.0,59.0,29.74,SSE,163,0.0,1.0,98,0.09,,,0.23,,2013-08-13 12:21:00,
2013-08-13 08:42:00,61.0,60.0,29.74,South,171,1.0,2.0,98,0.04,,,0.23,,2013-08-13 12:42:00,
2013-08-13 08:52:00,61.0,60.0,29.74,SSE,164,1.0,2.0,98,0.01,,,0.23,,2013-08-13 12:52:00,
2013-08-13 09:11:00,62.0,61.0,29.74,SSE,152,0.0,2.0,98,0.00,,,0.23,,2013-08-13 13:11:00,
2013-08-13 09:22:00,62.0,61.0,29.73,SSE,166,1.0,2.0,98,0.00,,,0.23,,2013-08-13 13:22:00,
2013-08-13 09:42:00,62.0,61.0,29.73,SSE,168,3.0,5.0,98,0.00,,,0.23,,2013-08-13 13:42:00,
2013-08-13 09:52:00,63.0,62.0,29.73,SSE,153,2.0,3.0,98,0.00,,,0.23,,2013-08-13 13:52:00,
2013-08-13 10:11:00,64.0,63.0,29.73,SE,138,1.0,5.0,97,0.00,,,0.23,,2013-08-13 14:11:00,
2013-08-13 10:22:00,65.0,64.0,29.73,SSE,166,1.0,5.0,95,0.00,,,0.23,,2013-08-13 14:22:00,
2013-08-13 10:42:00,66.0,63.0,29.73,NW,312,0.0,3.0,89,0.00,,,0.23,,2013-08-13 14:42:00,
2013-08-13 10:52:00,68.0,65.0,29.73,SW,214,0.0,5.0,89,0.00,,,0.23,,2013-08-13 14:52:00,
2013-08-13 11:11:00,69.0,65.0,29.73,NW,316,0.0,2.0,88,0.00,,,0.23,,2013-08-13 15:11:00,
2013-08-13 11:22:00,70.0,65.0,29.73,WNW,296,0.0,3.0,84,0.00,,,0.23,,2013-08-13 15:22:00,
2013-08-13 11:44:00,70.0,65.0,29.74,WNW,297,0.0,2.0,84,0.00,,,0.23,,2013-08-13 15:44:00,
2013-08-13 11:54:00,69.0,65.0,29.74,WNW,303,1.0,5.0,86,0.00,,,0.23,,2013-08-13 15:54:00,
2013-08-13 12:13:00,69.0,64.0,29.73,NW,316,3.0,9.0,85,0.00,,,0.23,,2013-08-13 16:13:00,
2013-08-13 12:23:00,70.0,64.0,29.74,WNW,297,4.0,7.0,81,0.00,,,0.23,,2013-08-13 16:23:00,
2013-08-13 12:45:00,69.0,62.0,29.74,NW,319,4.0,9.0,79,0.00,,,0.23,,2013-08-13 16:45:00,
2013-08-13 12:54:00,70.0,63.0,29.73,NNW,337,2.0,7.0,79,0.00,,,0.23,,2013-08-13 16:54:00,
2013-08-13 13:16:00,70.0,63.0,29.74,NW,318,1.0,8.0,78,0.00,,,0.23,,2013-08-13 17:16:00,
2013-08-13 13:27:00,72.0,64.0,29.72,WNW,292,1.0,7.0,75,0.00,,,0.23,,2013-08-13 17:27:00,
2013-08-13 13:46:00,-999.0,-99.9,29.72,WNW,287,3.0,7.0,-999,0.00,,,0.23,,2013-08-13 17:46:00,
2013-08-13 13:56:00,72.0,62.0,29.72,NW,310,1.0,7.0,72,0.00,,,0.23,,2013-08-13 17:56:00,
2013-08-13 14:15:00,74.0,61.0,29.72,WNW,297,5.0,10.0,64,0.00,,,0.23,,2013-08-13 18:15:00,
2013-08-13 14:25:00,74.0,63.0,29.72,North,3,4.0,11.0,69,0.00,,,0.23,,2013-08-13 18:25:00,
2013-08-13 14:44:00,73.0,63.0,29.72,NNW,330,3.0,8.0,72,0.00,,,0.23,,2013-08-13 18:44:00,
2013-08-13 14:56:00,75.0,63.0,29.71,NNW,338,2.0,7.0,66,0.00,,,0.23,,2013-08-13 18:56:00,
2013-08-13 15:14:00,74.0,60.0,29.71,NNW,334,7.0,17.0,62,0.00,,,0.23,,2013-08-13 19:14:00,
2013-08-13 15:25:00,70.0,58.0,29.73,WNW,302,9.0,19.0,66,0.00,,,0.23,,2013-08-13 19:25:00,
2013-08-13 15:44:00,70.0,60.0,29.73,WNW,303,4.0,9.0,71,0.00,,,0.23,,2013-08-13 19:44:00,
2013-08-13 15:55:00,70.0,59.0,29.73,North,349,6.0,15.0,69,0.00,,,0.23,,2013-08-13 19:55:00,
2013-08-13 16:15:00,70.0,61.0,29.72,WNW,300,3.0,6.0,73,0.00,,,0.23,,2013-08-13 20:15:00,
2013-08-13 16:22:00,71.0,61.0,29.72,WNW,298,4.0,11.0,71,0.00,,,0.23,,2013-08-13 20:22:00,
2013-08-13 16:45:00,72.0,61.0,29.72,NW,321,3.0,13.0,69,0.00,,,0.23,,2013-08-13 20:45:00,
2013-08-13 16:53:00,71.0,62.0,29.72,NNW,335,3.0,7.0,73,0.00,,,0.23,,2013-08-13 20:53:00,
2013-08-13 17:01:00,71.0,62.0,29.72,NNW,335,3.0,7.0,73,0.00,,,0.23,,2013-08-13 21:01:00,
2013-08-13 17:11:00,71.0,62.0,29.72,NNW,335,3.0,7.0,73,0.00,,,0.23,,2013-08-13 21:11:00,
2013-08-13 17:24:00,71.0,57.0,29.73,WNW,284,7.0,12.0,62,0.00,,,0.23,,2013-08-13 21:24:00,
2013-08-13 17:46:00,71.0,55.0,29.72,NNE,21,7.0,13.0,58,0.00,,,0.23,,2013-08-13 21:46:00,
2013-08-13 17:54:00,71.0,57.0,29.72,NW,312,5.0,10.0,61,0.00,,,0.23,,2013-08-13 21:54:00,
2013-08-13 18:13:00,70.0,57.0,29.73,WNW,300,6.0,11.0,64,0.00,,,0.23,,2013-08-13 22:13:00,
2013-08-13 18:23:00,69.0,57.0,29.74,North,352,8.0,20.0,66,0.00,,,0.23,,2013-08-13 22:23:00,
2013-08-13 18:50:00,69.0,55.0,29.74,NW,320,12.0,22.0,62,0.00,,,0.23,,2013-08-13 22:50:00,
2013-08-13 18:57:00,68.0,54.0,29.74,NNE,24,9.0,16.0,61,0.00,,,0.23,,2013-08-13 22:57:00,
2013-08-13 19:13:00,67.0,53.0,29.75,NW,305,10.0,17.0,61,0.00,,,0.23,,2013-08-13 23:13:00,
2013-08-13 19:26:00,66.0,53.0,29.75,NW,314,7.0,16.0,64,0.00,,,0.23,,2013-08-13 23:26:00,
2013-08-13 19:47:00,66.0,54.0,29.76,North,353,6.0,23.0,66,0.00,,,0.23,,2013-08-13 23:47:00,
2013-08-13 19:57:00,65.0,54.0,29.77,NNW,342,6.0,9.0,68,0.00,,,0.23,,2013-08-13 23:57:00,
2013-08-13 20:11:00,64.0,51.0,29.78,NW,321,7.0,15.0,62,0.00,,,0.23,,2013-08-14 00:11:00,
2013-08-13 20:22:00,63.0,51.0,29.78,North,359,6.0,13.0,65,0.00,,,0.23,,2013-08-14 00:22:00,
2013-08-13 20:42:00,63.0,51.0,29.79,NNE,23,5.0,12.0,66,0.00,,,0.23,,2013-08-14 00:42:00,
2013-08-13 20:52:00,62.0,51.0,29.79,NW,323,7.0,13.0,67,0.00,,,0.23,,2013-08-14 00:52:00,
2013-08-13 21:11:00,61.0,50.0,29.80,NW,313,4.0,9.0,67,0.00,,,0.23,,2013-08-14 01:11:00,
2013-08-13 21:21:00,60.0,51.0,29.81,NW,307,5.0,13.0,71,0.00,,,0.23,,2013-08-14 01:21:00,
2013-08-13 21:42:00,60.0,50.0,29.81,NE,40,5.0,8.0,69,0.00,,,0.23,,2013-08-14 01:42:00,
2013-08-13 21:52:00,60.0,50.0,29.82,NNW,338,5.0,10.0,69,0.00,,,0.23,,2013-08-14 01:52:00,
2013-08-13 22:11:00,59.0,49.0,29.82,NW,307,4.0,8.0,69,0.00,,,0.23,,2013-08-14 02:11:00,
2013-08-13 22:22:00,58.0,49.0,29.83,NW,321,5.0,11.0,72,0.00,,,0.23,,2013-08-14 02:22:00,
2013-08-13 22:42:00,58.0,49.0,29.83,NW,326,4.0,6.0,71,0.00,,,0.23,,2013-08-14 02:42:00,
2013-08-13 22:52:00,57.0,48.0,29.83,NW,318,2.0,6.0,73,0.00,,,0.23,,2013-08-14 02:52:00,
2013-08-13 23:11:00,57.0,49.0,29.84,NW,323,1.0,5.0,75,0.00,,,0.23,,2013-08-14 03:11:00,
2013-08-13 23:22:00,56.0,47.0,29.84,NW,314,3.0,6.0,73,0.00,,,0.23,,2013-08-14 03:22:00,
2013-08-13 23:43:00,56.0,47.0,29.84,NW,316,4.0,8.0,71,0.00,,,0.23,,2013-08-14 03:43:00,
2013-08-13 23:53:00,55.0,47.0,29.84,WNW,302,4.0,6.0,73,0.00,,,0.23,,2013-08-14 03:53:00,